• Join FlightAware (Why Join?)
  • Login
  • US Flag 
06:19AM EDT


 

Airport Tracker/Info


-or-


 

Live Flight TrackerFlight Track Log ✈ UPS833 ✈ 18-Jul-2013 ✈ KBOI - KSLC

Flight Track Log - Related Links

Times and Time Zones

All times are in EDT time to prevent confusion due to time zone crossing. See the UPS833 flight status page for this flight to view local times or setup timezone preferences in your user account.

Time Position Orientation Groundspeed Altitude Reporting Facility
EDT Latitude Longitude Course Direction KTS MPH feet Rate Location/Type
08:38PM 43.5680 -116.2430 185° South 2 2  Level FlightAware
08:44PM 43.5670 -116.2430 180° South 28 32 180 Level FlightAware
08:44PM 43.5660 -116.2420 144° Southeast 33 38 300 Level FlightAware
08:45PM 43.5660 -116.2390 90° East 15 17 360 Level FlightAware
08:45PM 43.5660 -116.2360 90° East 15 17 360 Level FlightAware
08:46PM 43.5660 -116.2350 90° East 15 17 360 Level FlightAware
08:46PM 43.5650 -116.2320 115° Southeast 19 22 360 Level FlightAware
08:46PM 43.5640 -116.2300 125° Southeast 22 25 420 Level FlightAware
08:47PM 43.5630 -116.2250 105° East 25 29 420 Level FlightAware
08:47PM 43.5610 -116.2210 125° Southeast 28 32 480 Level FlightAware
08:48PM 43.5600 -116.2180 115° Southeast 30 35 540 Level FlightAware
08:48PM 43.5590 -116.2150 115° Southeast 23 26 540 Level FlightAware
08:48PM 43.5590 -116.2130 90° East 24 28 600 Level FlightAware
08:49PM 43.5580 -116.2100 115° Southeast 19 22 600 Level FlightAware
08:52PM 43.4397 -115.9218 122° Southeast  Level FlightAware Approximate
08:52PM 43.5590 -116.2100 122° Southeast 23 26  Level FlightAware
08:53PM 43.5600 -116.2130 295° West 69 79 2,280 Level FlightAware
08:54PM 43.5680 -116.2360 296° West 161 185 3,400 5,280 Climbing FlightAware
08:54PM 43.5780 -116.2660 295° West 163 188 5,300 3,120 Climbing FlightAware
08:54PM 43.5810 -116.2810 285° West 177 204 5,800 2,040 Climbing FlightAware
08:55PM 43.5750 -116.3100 254° West 220 253 6,600 2,100 Climbing FlightAware
08:55PM 43.5620 -116.3240 218° Southwest 241 277 7,200 2,340 Climbing FlightAware
08:55PM 43.5480 -116.3290 195° South 258 297 7,700 2,820 Climbing FlightAware
08:56PM 43.5160 -116.3120 159° South 294 338 9,100 3,000 Climbing FlightAware
08:56PM 43.5010 -116.2840 126° Southeast 313 360 10,000 2,640 Climbing FlightAware
08:57PM 43.4730 -116.2070 117° Southeast 362 417 11,700 2,340 Climbing FlightAware
08:57PM 43.4340 -116.1110 119° Southeast 412 474 13,300 2,880 Climbing FlightAware
08:58PM 43.3980 -116.0140 117° Southeast 425 489 15,800 3,300 Climbing FlightAware
08:59PM 43.3630 -115.9170 116° Southeast 440 506 17,700 3,060 Climbing FlightAware
09:00PM 43.3220 -115.8060 117° Southeast 451 519 20,100 3,180 Climbing FlightAware
09:00PM 43.2810 -115.6930 116° Southeast 455 524 22,400 3,180 Climbing FlightAware
09:01PM 43.2410 -115.5850 117° Southeast 455 524 24,700 2,880 Climbing FlightAware
09:02PM 43.2020 -115.4810 117° Southeast 466 536 26,400 1,620 Climbing FlightAware
09:02PM 43.1580 -115.3630 117° Southeast 487 560 27,000 420 Climbing FlightAware
09:03PM 43.1170 -115.2530 117° Southeast 485 558 27,000  Level FlightAware
09:04PM 43.0760 -115.1450 117° Southeast 480 552 27,000  Level FlightAware
09:04PM 43.0310 -115.0240 117° Southeast 477 549 27,000  Level FlightAware
09:05PM 42.9860 -114.9070 118° Southeast 476 548 27,000  Level FlightAware
09:06PM 42.9450 -114.8000 118° Southeast 475 547 27,000  Level FlightAware
09:06PM 42.9080 -114.7050 118° Southeast 476 548 27,000  Level FlightAware
09:07PM 42.8590 -114.5770 118° Southeast 477 549 27,000  Level FlightAware
09:08PM 42.8210 -114.4790 118° Southeast 476 548 27,000  Level FlightAware
09:09PM 42.7730 -114.3540 118° Southeast 477 549 27,000  Level FlightAware
09:09PM 42.7430 -114.2800 119° Southeast 475 547 27,000  Level FlightAware
09:10PM 42.6970 -114.1610 118° Southeast 474 545 27,000  Level FlightAware
09:12PM 42.5660 -113.8560 120° Southeast 470 541 27,000  Level FlightAware
09:13PM 42.4780 -113.7280 133° Southeast 446 513 27,000  Level FlightAware
09:14PM 42.4330 -113.6670 135° Southeast 446 513 27,000  Level FlightAware
09:14PM 42.3740 -113.5870 135° Southeast 446 513 27,000  Level FlightAware
09:15PM 42.2860 -113.5080 146° Southeast 434 499 27,000  Level FlightAware
09:15PM 42.2589 -113.4770 140° Southeast 435 501 27,000  Level FlightAware ADS-B
09:16PM 42.1980 -113.4070 140° Southeast 438 504 27,000  Level FlightAware ADS-B
09:17PM 42.0970 -113.2920 140° Southeast 435 501 27,000  Level FlightAware
09:17PM 42.0560 -113.2440 139° Southeast 436 502 27,000 -660 Level FlightAware ADS-B
09:18PM 41.9670 -113.1460 141° Southeast 430 495 26,100 -1,380 Descending FlightAware
09:19PM 41.8950 -113.0650 140° Southeast 420 483 24,600 -1,860 Descending FlightAware
09:20PM 41.8410 -113.0050 140° Southeast 411 473 23,500 -1,980 Descending FlightAware
09:20PM 41.7830 -112.9410 141° Southeast 403 464 22,100 -1,980 Descending FlightAware
09:21PM 41.7040 -112.8530 140° Southeast 390 449 20,400 -1,740 Descending FlightAware
09:22PM 41.6430 -112.7860 141° Southeast 383 441 19,200 -1,620 Descending FlightAware
09:22PM 41.6250 -112.7650 139° Southeast 385 443 18,900 -1,440 Descending FlightAware ADS-B
09:23PM 41.5794 -112.7160 141° Southeast 382 440 18,100 -1,500 Descending FlightAware ADS-B
09:23PM 41.5378 -112.6690 140° Southeast 380 437 17,300 -1,140 Descending FlightAware ADS-B
09:24PM 41.4926 -112.6200 141° Southeast 376 433 16,900 -420 Descending FlightAware ADS-B
09:25PM 41.4489 -112.5710 140° Southeast 377 434 16,900 -720 Level FlightAware ADS-B
09:25PM 41.3963 -112.5120 140° Southeast 373 429 16,100 -1,320 Descending FlightAware ADS-B
09:26PM 41.3509 -112.4580 138° Southeast 352 405 15,300 -1,740 Descending FlightAware ADS-B
09:26PM 41.3107 -112.4130 140° Southeast 352 405 14,100 -2,040 Descending FlightAware ADS-B
09:27PM 41.2729 -112.3710 140° Southeast 359 413 13,200 -1,620 Descending FlightAware ADS-B
09:27PM 41.2348 -112.3280 140° Southeast 356 410 12,500 -1,140 Descending FlightAware ADS-B
09:28PM 41.1850 -112.2710 139° Southeast 352 405 11,900 -420 Descending FlightAware ADS-B
09:29PM 41.1285 -112.2060 139° Southeast 352 405 11,900  Level FlightAware ADS-B
09:29PM 41.0903 -112.1630 140° Southeast 353 406 11,900  Level FlightAware ADS-B
09:30PM 41.0611 -112.1430 153° Southeast 358 412 11,900  Level FlightAware ADS-B
09:30PM 41.0343 -112.1360 169° South 357 411 11,900  Level FlightAware ADS-B
09:30PM 40.9850 -112.1260 171° South 350 403 11,900 -600 Level FlightAware ADS-B
09:31PM 40.9373 -112.1160 171° South 343 395 11,300 -1,080 Descending FlightAware ADS-B
09:31PM 40.8985 -112.1080 171° South 327 376 10,900 -480 Descending FlightAware ADS-B
09:32PM 40.8547 -112.1030 175° South 292 336 10,900 -120 Level FlightAware ADS-B
09:32PM 40.8160 -112.0990 176° South 259 298 10,800 -480 Descending FlightAware ADS-B
09:33PM 40.8051 -112.0970 172° South 251 289 10,600 -1,080 Descending FlightAware ADS-B
09:33PM 40.7695 -112.0880 169° South 238 274 10,100 -1,260 Descending FlightAware ADS-B
09:33PM 40.7512 -112.0830 168° South 236 272 9,600 -1,860 Descending FlightAware ADS-B
09:34PM 40.7336 -112.0780 168° South 234 269 9,100 -1,800 Descending FlightAware ADS-B
09:34PM 40.7195 -112.0750 171° South 234 269 8,700 -1,260 Descending FlightAware ADS-B
09:34PM 40.7032 -112.0700 167° South 228 262 8,500 -600 Descending FlightAware ADS-B
09:34PM 40.6863 -112.0660 170° South 222 255 8,400 -240 Descending FlightAware ADS-B
09:35PM 40.6706 -112.0620 169° South 220 253 8,400  Level FlightAware ADS-B
09:35PM 40.6554 -112.0580 169° South 222 255 8,400  Level FlightAware ADS-B
09:36PM 40.6203 -112.0200 141° Southeast 213 245 8,400 -240 Level FlightAware ADS-B
09:36PM 40.6208 -112.0040 88° East 198 228 8,200 -1,380 Descending FlightAware ADS-B
09:36PM 40.6227 -111.9820 84° East 195 224 7,700 -1,680 Descending FlightAware ADS-B
09:36PM 40.6240 -111.9780 67° East 192 221 7,600 -2,040 Descending FlightAware ADS-B
09:36PM 40.6283 -111.9710 51° Northeast 189 217 7,300 -2,100 Descending FlightAware ADS-B
09:37PM 40.6378 -111.9640 29° Northeast 185 213 6,900 -1,680 Descending FlightAware ADS-B
09:37PM 40.6483 -111.9620 North 183 211 6,600 -1,260 Descending FlightAware ADS-B
09:37PM 40.6620 -111.9630 357° North 179 206 6,300 -1,020 Descending FlightAware ADS-B
09:38PM 40.6970 -111.9650 358° North 176 203 5,600 -900 Descending FlightAware ADS-B
09:38PM 40.7082 -111.9660 356° North 137 158 5,400 -720 Descending FlightAware ADS-B
09:38PM 40.7193 -111.9670 356° North 127 146 5,200 -840 Descending FlightAware ADS-B
09:39PM 40.7259 -111.9680 353° North 126 145 5,000 -720 Descending FlightAware ADS-B
09:39PM 40.7347 -111.9690 355° North 129 148 4,900 -600 Descending FlightAware ADS-B
09:39PM 40.7439 -111.9700 355° North 129 148 4,700 -780 Descending FlightAware ADS-B
09:39PM 40.7546 -111.9710 356° North 131 151 4,500 -540 Descending FlightAware ADS-B
09:40PM 40.7645 -111.9720 356° North 129 148 4,400 -600 Descending FlightAware ADS-B
09:40PM 40.7742 -111.9730 356° North 128 147 4,200 -780 Descending FlightAware ADS-B